• Join FlightAware (Why Join?)
  • Login
  • US Flag 
02:22AM EDT


 

Airport Tracker/Info


-or-


 

Live Flight TrackerFlight Track Log ✈ FDX1254 ✈ 10-Jun-2013 ✈ KFWA - KMEM

Flight Track Log - Related Links

Times and Time Zones

All times are in EDT time to prevent confusion due to time zone crossing. See the FDX1254 flight status page for this flight to view local times or setup timezone preferences in your user account.

Time Position Orientation Groundspeed Altitude Reporting Facility
EDT Latitude Longitude Course Direction KTS MPH feet Rate Location/Type
11:09PM 40.8100 -85.2990 219° Southwest 322 371 10,400  Level FlightAware
11:10PM 40.7640 -85.3500 220° Southwest 350 403 10,500 60 Climbing FlightAware
11:11PM 40.7030 -85.4180 220° Southwest 350 403 10,500 2,460 Level FlightAware
11:12PM 40.5450 -85.5880 219° Southwest 445 512 16,300 3,540 Climbing FlightAware
11:13PM 40.4790 -85.6590 219° Southwest 454 522 17,700 2,100 Climbing FlightAware
11:14PM 40.4110 -85.7320 219° Southwest 461 531 19,200 1,980 Climbing FlightAware
11:14PM 40.3430 -85.8040 219° Southwest 470 541 20,500 1,860 Climbing FlightAware
11:15PM 40.2690 -85.8850 220° Southwest 480 552 21,900 1,860 Climbing FlightAware
11:16PM 40.1970 -85.9610 219° Southwest 490 564 23,100 1,740 Climbing FlightAware
11:17PM 40.1170 -86.0450 219° Southwest 497 572 24,400 1,560 Climbing FlightAware
11:17PM 40.0460 -86.1220 220° Southwest 505 581 25,400 1,500 Climbing FlightAware
11:18PM 39.9720 -86.2000 219° Southwest 511 588 26,400 1,440 Climbing FlightAware
11:19PM 39.8880 -86.2900 219° Southwest 511 588 27,500 1,620 Climbing FlightAware
11:19PM 39.8090 -86.3680 217° Southwest 508 585 28,800 1,500 Climbing FlightAware
11:20PM 39.7360 -86.4270 212° Southwest 517 595 29,500 1,740 Climbing FlightAware
11:21PM 39.6380 -86.5010 210° Southwest 511 588 31,300 2,160 Climbing FlightAware
11:22PM 39.5490 -86.5680 210° Southwest 503 579 32,900 2,040 Climbing FlightAware
11:22PM 39.4690 -86.6290 210° Southwest 498 573 34,200 1,800 Climbing FlightAware
11:23PM 39.3850 -86.6920 210° Southwest 497 572 35,400 1,800 Climbing FlightAware
11:24PM 39.2970 -86.7590 211° Southwest 490 564 36,800 1,500 Climbing FlightAware
11:24PM 39.2170 -86.8180 210° Southwest 496 571 37,500 900 Climbing FlightAware
11:25PM 39.1390 -86.8760 210° Southwest 499 574 38,000 360 Climbing FlightAware
11:26PM 39.0540 -86.9400 210° Southwest 499 574 38,000  Level FlightAware
11:26PM 38.9680 -87.0040 210° Southwest 499 574 38,000  Level FlightAware
11:27PM 38.8880 -87.0630 210° Southwest 499 574 38,000  Level FlightAware
11:28PM 38.7950 -87.1310 210° Southwest 496 571 38,000  Level FlightAware
11:29PM 38.7140 -87.1910 210° Southwest 495 570 38,000  Level FlightAware
11:29PM 38.6360 -87.2480 210° Southwest 492 566 38,000  Level FlightAware
11:30PM 38.5480 -87.3130 210° Southwest 490 564 38,000  Level FlightAware
11:31PM 38.4710 -87.3690 210° Southwest 489 563 38,000  Level FlightAware
11:31PM 38.3870 -87.4310 210° Southwest 488 562 38,000  Level FlightAware
11:32PM 38.3020 -87.4920 209° Southwest 487 560 38,000  Level FlightAware
11:33PM 38.2240 -87.5490 210° Southwest 486 559 38,000  Level FlightAware
11:33PM 38.1340 -87.6140 210° Southwest 486 559 38,000  Level FlightAware
11:34PM 38.0560 -87.6700 209° Southwest 486 559 38,000  Level FlightAware
11:35PM 37.9720 -87.7300 209° Southwest 487 560 38,000  Level FlightAware
11:36PM 37.8850 -87.7880 208° Southwest 489 563 38,000  Level FlightAware
11:36PM 37.8030 -87.8390 206° Southwest 491 565 38,000  Level FlightAware
11:37PM 37.7220 -87.8880 206° Southwest 489 563 38,000  Level FlightAware
11:38PM 37.6310 -87.9430 206° Southwest 487 560 38,000  Level FlightAware
11:38PM 37.5490 -87.9940 206° Southwest 488 562 38,000  Level FlightAware
11:39PM 37.4580 -88.0480 205° Southwest 488 562 38,000  Level FlightAware
11:40PM 37.3760 -88.0990 206° Southwest 488 562 38,000  Level FlightAware
11:40PM 37.2940 -88.1500 206° Southwest 488 562 38,000  Level FlightAware
11:41PM 37.2060 -88.2000 204° Southwest 488 562 38,000  Level FlightAware
11:42PM 37.1020 -88.2620 205° Southwest 488 562 38,000  Level FlightAware
11:43PM 36.9900 -88.3280 205° Southwest 487 560 38,000  Level FlightAware
11:44PM 36.9080 -88.3780 206° Southwest 487 560 38,000  Level FlightAware
11:45PM 36.7740 -88.4590 206° Southwest 485 558 38,000 -540 Level FlightAware
11:45PM 36.6900 -88.5090 206° Southwest 479 551 37,100 -1,200 Descending FlightAware
11:46PM 36.6060 -88.5590 206° Southwest 459 528 36,400 -1,320 Descending FlightAware
11:47PM 36.4550 -88.6470 205° Southwest 458 527 34,400 -1,020 Descending FlightAware
11:48PM 36.3950 -88.6820 205° Southwest 458 527 34,400  Level FlightAware
11:49PM 36.3160 -88.7270 205° Southwest 458 527 34,400  Level FlightAware
11:49PM 36.2580 -88.7610 205° Southwest 458 527 34,400  Level FlightAware
11:50PM 36.1820 -88.8050 205° Southwest 458 527 34,400  Level FlightAware
11:51PM 36.1240 -88.8390 205° Southwest 458 527 34,400  Level FlightAware
11:52PM 36.0450 -88.8840 205° Southwest 458 527 34,400  Level FlightAware
11:52PM 35.9870 -88.9180 205° Southwest 458 527 34,400  Level FlightAware
11:53PM 35.9070 -88.9640 205° Southwest 458 527 34,400  Level FlightAware
11:54PM 35.8480 -88.9980 205° Southwest 458 527 34,400  Level FlightAware
11:54PM 35.7690 -89.0430 205° Southwest 458 527 34,400  Level FlightAware
11:55PM 35.7090 -89.0770 205° Southwest 458 527 34,400  Level FlightAware
11:56PM 35.6310 -89.1220 205° Southwest 458 527 34,400  Level FlightAware
11:56PM 35.5720 -89.1560 205° Southwest 458 527 34,400 -19,860 Level FlightAware
11:57PM 35.5167 -89.3333 205° Southwest 329 379 10,300 -20,940 Descending KMEM
11:58PM 35.5000 -89.3881 250° West 336 387 10,000 -960 Descending Memphis Center
11:59PM 35.4314 -89.4244 203° Southwest 250 288 8,900 -1,020 Descending Memphis Center
12:00AM 35.3503 -89.4356 186° South 280 322 8,000 -960 Descending Memphis Center
12:01AM 35.2836 -89.4542 193° South 274 315 7,000 -1,080 Descending Memphis Center
12:02AM 35.2211 -89.4775 197° South 248 285 5,900 -1,020 Descending Memphis Center
12:03AM 35.1586 -89.5011 197° South 239 275 5,000 -900 Descending Memphis Center
12:04AM 35.1089 -89.5269 203° Southwest 234 269 4,200 -540 Descending Memphis Center
12:05AM 35.0694 -89.5781 227° Southwest 216 249 4,000 -300 Descending Memphis Center
12:06AM 35.0492 -89.6417 249° West 207 238 3,600 -540 Descending Memphis Center
12:07AM 35.0536 -89.7078 275° West 202 232 3,000 -360 Descending Memphis Center
12:08AM 35.0539 -89.7761 270° West 202 232 2,900 -420 Descending Memphis Center
12:09AM 35.0564 -89.8369 273° West 189 217 2,200 -780 Descending Memphis Center
12:10AM 35.0564 -89.8878 270° West 169 194 1,400 -780 Descending Memphis Center
12:10AM 35.0500 -89.9167 255° West 115 132 900 -720 Descending KMEM
12:12AM 35.0424 -89.9767 163° South  Level Estimated
12:19AM 35.0424 -89.9767 345° North  Level Estimated